Time;durP1;ratioP1;P1;durP2;ratioP2;P2;SDS_P1;SDS_P2;PMS_P1;PMS_P2;Temp;Humidity;BMP_temperature;BMP_pressure;BME280_temperature;BME280_humidity;BME280_pressure;Samples;Min_cycle;Max_cycle;Signal;HPM_P1;HPM_P2
2023/07/04 00:01:48;;;;;;;8.27;4.00;;;18.00;97.30;;;;;;5013835;28;20186;-65
2023/07/04 00:04:18;;;;;;;7.75;3.47;;;17.90;97.30;;;;;;5008080;28;20270;-65
2023/07/04 00:06:47;;;;;;;5.25;3.58;;;17.90;97.50;;;;;;5009729;28;20223;-66
2023/07/04 00:09:15;;;;;;;5.68;3.67;;;17.90;97.60;;;;;;5005729;28;20185;-64
2023/07/04 00:11:41;;;;;;;5.68;3.33;;;17.90;97.70;;;;;;5016950;28;20193;-65
2023/07/04 00:14:09;;;;;;;6.63;3.38;;;17.90;97.90;;;;;;5027326;28;20178;-65
2023/07/04 00:16:37;;;;;;;6.78;3.80;;;17.90;98.00;;;;;;5012809;28;20206;-65
2023/07/04 00:19:06;;;;;;;6.55;3.55;;;17.80;98.20;;;;;;5015923;28;20229;-65
2023/07/04 00:21:38;;;;;;;5.25;3.35;;;17.80;98.20;;;;;;5017956;28;20187;-65
2023/07/04 00:24:05;;;;;;;6.18;3.58;;;17.70;98.20;;;;;;5013642;28;20182;-66
2023/07/04 00:26:31;;;;;;;5.25;3.38;;;17.70;98.40;;;;;;5029447;28;21852;-65
2023/07/04 00:28:57;;;;;;;6.63;3.78;;;17.70;98.50;;;;;;5005489;28;20200;-64
2023/07/04 00:31:26;;;;;;;5.70;3.65;;;17.60;98.50;;;;;;5018045;28;20182;-65
2023/07/04 00:33:53;;;;;;;7.38;4.10;;;17.60;98.70;;;;;;5012636;28;20194;-65
2023/07/04 00:36:19;;;;;;;6.65;3.60;;;17.60;98.90;;;;;;5030758;28;20196;-64
2023/07/04 00:38:56;;;;;;;6.18;3.60;;;17.60;99.20;;;;;;5030488;28;20196;-65
2023/07/04 00:41:26;;;;;;;7.25;3.90;;;17.60;99.50;;;;;;5012988;28;20209;-66
2023/07/04 00:44:13;;;;;;;8.55;3.75;;;17.50;99.30;;;;;;5043467;28;20178;-65
2023/07/04 00:47:06;;;;;;;6.35;3.85;;;17.50;99.80;;;;;;5016824;28;20205;-65
2023/07/04 00:49:48;;;;;;;6.85;4.32;;;17.50;99.90;;;;;;5019868;28;20209;-66
2023/07/04 00:52:23;;;;;;;6.50;3.78;;;17.50;99.90;;;;;;5015447;28;20206;-65
2023/07/04 00:54:57;;;;;;;6.72;3.90;;;17.40;99.90;;;;;;5010175;28;20208;-65
2023/07/04 00:57:31;;;;;;;7.20;3.75;;;17.40;99.90;;;;;;5031665;28;20175;-65
2023/07/04 00:59:58;;;;;;;5.70;3.10;;;17.40;99.90;;;;;;5016700;28;20205;-65
2023/07/04 01:02:27;;;;;;;6.00;3.17;;;17.40;99.90;;;;;;5029015;28;20186;-65
2023/07/04 01:04:54;;;;;;;5.30;3.50;;;17.40;99.90;;;;;;5032083;28;20254;-65
2023/07/04 01:07:23;;;;;;;4.97;3.05;;;17.40;99.90;;;;;;5017323;28;20194;-65
2023/07/04 01:09:55;;;;;;;8.18;3.30;;;17.40;99.90;;;;;;5033227;28;20198;-65
2023/07/04 01:12:30;;;;;;;8.80;4.18;;;17.40;99.90;;;;;;5016346;28;20178;-65
2023/07/04 01:14:57;;;;;;;5.47;2.63;;;17.40;99.90;;;;;;5017324;28;20255;-66
2023/07/04 01:17:23;;;;;;;6.60;2.90;;;17.30;99.90;;;;;;5013974;28;20244;-66
2023/07/04 01:19:50;;;;;;;6.00;3.05;;;17.30;99.90;;;;;;5016588;28;20202;-65
2023/07/04 01:22:46;;;;;;;6.60;3.53;;;17.20;99.90;;;;;;5014187;28;20181;-65
2023/07/04 01:25:45;;;;;;;5.63;2.92;;;17.30;99.90;;;;;;5016140;28;20185;-65
2023/07/04 01:28:13;;;;;;;5.03;2.85;;;17.30;99.90;;;;;;5013192;28;20185;-65
2023/07/04 01:30:40;;;;;;;5.65;3.10;;;17.30;99.90;;;;;;5016272;28;20178;-65
2023/07/04 01:33:08;;;;;;;7.00;2.80;;;17.20;99.90;;;;;;5013452;28;20170;-65
2023/07/04 01:35:36;;;;;;;4.75;2.78;;;17.20;99.90;;;;;;5018588;28;20193;-66
2023/07/04 01:38:02;;;;;;;5.63;2.75;;;17.20;99.90;;;;;;5013490;28;20178;-65
2023/07/04 01:40:34;;;;;;;6.65;2.80;;;17.20;99.90;;;;;;5034459;28;20256;-65
2023/07/04 01:43:01;;;;;;;4.22;2.90;;;17.20;99.90;;;;;;5018723;28;20178;-65
2023/07/04 01:45:26;;;;;;;5.15;2.70;;;17.20;99.90;;;;;;5010170;28;20170;-65
2023/07/04 01:47:53;;;;;;;4.55;2.60;;;17.20;99.90;;;;;;5031247;28;20918;-66
2023/07/04 01:50:21;;;;;;;8.45;3.08;;;17.10;99.90;;;;;;5030331;28;20217;-65
2023/07/04 01:52:49;;;;;;;3.45;2.45;;;17.10;99.90;;;;;;5033059;28;20232;-65
2023/07/04 01:55:15;;;;;;;7.32;2.58;;;17.10;99.90;;;;;;5022423;28;20198;-65
2023/07/04 01:57:42;;;;;;;6.22;2.30;;;17.10;99.90;;;;;;5020733;28;20360;-65
2023/07/04 02:00:09;;;;;;;5.25;2.80;;;17.10;99.90;;;;;;5018677;28;20216;-65
2023/07/04 02:02:39;;;;;;;5.00;2.65;;;17.10;99.90;;;;;;5012344;28;20198;-66
2023/07/04 02:05:05;;;;;;;7.35;2.50;;;17.10;99.90;;;;;;5018234;28;20193;-65
2023/07/04 02:07:31;;;;;;;4.03;2.35;;;17.10;99.90;;;;;;5010716;28;20198;-65
2023/07/04 02:09:57;;;;;;;4.75;2.40;;;17.10;99.90;;;;;;5016020;28;20178;-66
2023/07/04 02:12:23;;;;;;;4.70;2.75;;;17.10;99.90;;;;;;5033498;28;20181;-65
2023/07/04 02:14:51;;;;;;;7.00;4.18;;;17.10;99.90;;;;;;5018584;28;20181;-65
2023/07/04 02:17:19;;;;;;;6.75;2.75;;;17.00;99.90;;;;;;5017350;28;20174;-65
2023/07/04 02:19:44;;;;;;;6.22;2.63;;;17.00;99.90;;;;;;5020160;28;20182;-66
2023/07/04 02:22:10;;;;;;;5.72;2.83;;;17.00;99.90;;;;;;5032084;28;20201;-66
2023/07/04 02:24:38;;;;;;;5.93;2.63;;;17.00;99.90;;;;;;5019566;28;20232;-65
2023/07/04 02:27:04;;;;;;;7.15;2.45;;;17.00;99.90;;;;;;5017893;28;20208;-66
2023/07/04 02:29:32;;;;;;;5.32;2.22;;;17.00;99.90;;;;;;5022819;28;20189;-67
2023/07/04 02:31:58;;;;;;;4.30;2.47;;;17.00;99.90;;;;;;5038694;28;20174;-65
2023/07/04 02:34:25;;;;;;;5.07;2.47;;;17.00;99.90;;;;;;5018271;28;20170;-64
2023/07/04 02:36:54;;;;;;;4.10;2.30;;;17.00;99.90;;;;;;5021846;28;20187;-65
2023/07/04 02:39:21;;;;;;;5.10;2.30;;;16.90;99.90;;;;;;5027650;28;20201;-65
2023/07/04 02:41:49;;;;;;;5.20;2.30;;;16.90;99.90;;;;;;5019047;28;20202;-64
2023/07/04 02:44:17;;;;;;;4.00;2.40;;;16.90;99.90;;;;;;5013956;28;20179;-65
2023/07/04 02:46:45;;;;;;;5.07;2.08;;;16.90;99.90;;;;;;5037714;28;20826;-66
2023/07/04 02:49:13;;;;;;;4.57;2.40;;;16.90;99.90;;;;;;5023141;28;20202;-65
2023/07/04 02:51:41;;;;;;;4.60;2.38;;;16.90;99.90;;;;;;5017423;28;20178;-65
2023/07/04 02:54:06;;;;;;;3.33;1.98;;;16.90;99.90;;;;;;5030374;28;20224;-65
2023/07/04 02:56:34;;;;;;;4.95;2.45;;;16.80;99.90;;;;;;5037145;28;20181;-65
2023/07/04 02:59:02;;;;;;;5.32;2.05;;;16.90;99.90;;;;;;5017519;28;20174;-65
2023/07/04 03:01:30;;;;;;;5.05;1.90;;;16.80;99.90;;;;;;5012615;28;20182;-65
2023/07/04 03:03:55;;;;;;;3.63;2.13;;;16.80;99.90;;;;;;5032805;28;20185;-65
2023/07/04 03:06:21;;;;;;;5.30;2.15;;;16.80;99.90;;;;;;5001121;28;20297;-66
2023/07/04 03:08:47;;;;;;;4.25;1.98;;;16.80;99.90;;;;;;5024172;28;20170;-66
2023/07/04 03:11:15;;;;;;;5.60;2.00;;;16.80;99.90;;;;;;5040967;28;20227;-65
2023/07/04 03:13:40;;;;;;;5.55;2.35;;;16.80;99.90;;;;;;5017540;28;20257;-66
2023/07/04 03:16:06;;;;;;;4.82;2.20;;;16.80;99.90;;;;;;5035600;28;20205;-65
2023/07/04 03:18:33;;;;;;;5.13;2.13;;;16.80;99.90;;;;;;5018162;28;20194;-65
2023/07/04 03:21:01;;;;;;;3.30;2.20;;;16.70;99.90;;;;;;5018689;28;20181;-64
2023/07/04 03:23:29;;;;;;;4.60;1.98;;;16.70;99.90;;;;;;5008319;28;20321;-65
2023/07/04 03:25:57;;;;;;;4.15;1.88;;;16.70;99.90;;;;;;5016585;28;20190;-65
2023/07/04 03:28:22;;;;;;;5.40;1.85;;;16.70;99.90;;;;;;5019073;28;20174;-65
2023/07/04 03:30:51;;;;;;;5.43;2.38;;;16.70;99.90;;;;;;5016781;28;20178;-65
2023/07/04 03:33:16;;;;;;;4.40;2.35;;;16.70;99.90;;;;;;5015828;28;20261;-65
2023/07/04 03:35:42;;;;;;;5.20;1.90;;;16.70;99.90;;;;;;5018808;28;20244;-65
2023/07/04 03:38:07;;;;;;;4.32;1.98;;;16.70;99.90;;;;;;5017059;28;20174;-65
2023/07/04 03:40:36;;;;;;;3.40;1.77;;;16.70;99.90;;;;;;5018513;28;20174;-65
2023/07/04 03:43:03;;;;;;;5.93;2.00;;;16.70;99.90;;;;;;5032714;28;20214;-64
2023/07/04 03:45:29;;;;;;;4.15;1.75;;;16.60;99.90;;;;;;5017731;28;20182;-64
2023/07/04 03:47:54;;;;;;;3.63;1.75;;;16.60;99.90;;;;;;5015103;28;20236;-64
2023/07/04 03:50:20;;;;;;;3.53;2.03;;;16.60;99.90;;;;;;5019073;28;20276;-65
2023/07/04 03:52:46;;;;;;;4.75;1.80;;;16.60;99.90;;;;;;5030278;28;20717;-66
2023/07/04 03:55:13;;;;;;;4.25;1.80;;;16.60;99.90;;;;;;5015151;28;20267;-65
2023/07/04 03:57:47;;;;;;;4.57;1.85;;;16.60;99.90;;;;;;5010003;28;20175;-66
2023/07/04 04:00:13;;;;;;;4.13;1.95;;;16.60;99.90;;;;;;5029879;28;20192;-65
2023/07/04 04:02:38;;;;;;;3.35;1.80;;;16.60;99.90;;;;;;5017425;28;20194;-65
2023/07/04 04:05:04;;;;;;;4.78;1.85;;;16.60;99.90;;;;;;5012408;28;20257;-66
2023/07/04 04:07:30;;;;;;;4.03;1.90;;;16.60;99.90;;;;;;5022117;28;20240;-59
2023/07/04 04:09:57;;;;;;;6.07;2.00;;;16.60;99.90;;;;;;5037318;28;20182;-65
2023/07/04 04:12:25;;;;;;;4.80;2.00;;;16.60;99.90;;;;;;5025171;28;20186;-65
2023/07/04 04:14:53;;;;;;;5.72;1.95;;;16.60;99.90;;;;;;5033132;28;20181;-64
2023/07/04 04:17:22;;;;;;;4.30;1.60;;;16.60;99.90;;;;;;5010885;28;20178;-65
2023/07/04 04:19:47;;;;;;;4.72;2.40;;;16.60;99.90;;;;;;5032829;28;20186;-65
2023/07/04 04:22:14;;;;;;;4.90;2.08;;;16.60;99.90;;;;;;5022702;28;20193;-65
2023/07/04 04:24:40;;;;;;;5.55;1.80;;;16.60;99.90;;;;;;5028086;28;20291;-66
2023/07/04 04:27:11;;;;;;;5.88;1.60;;;16.60;99.90;;;;;;5024586;28;20251;-65
2023/07/04 04:29:36;;;;;;;2.83;1.83;;;16.60;99.90;;;;;;5006591;28;20189;-66
2023/07/04 04:32:02;;;;;;;4.13;1.83;;;16.70;99.90;;;;;;5014459;28;20174;-66
2023/07/04 04:34:28;;;;;;;4.63;1.92;;;16.70;99.90;;;;;;5012286;28;21022;-62
2023/07/04 04:36:58;;;;;;;7.05;2.00;;;16.70;99.90;;;;;;5013194;28;20437;-63
2023/07/04 04:39:26;;;;;;;3.63;1.65;;;16.70;99.90;;;;;;5013924;28;20181;-65
2023/07/04 04:41:54;;;;;;;4.55;1.92;;;16.70;99.90;;;;;;5032343;28;20347;-66
2023/07/04 04:44:20;;;;;;;5.55;1.88;;;16.70;99.90;;;;;;5017302;28;20174;-66
2023/07/04 04:46:48;;;;;;;4.72;1.85;;;16.70;99.90;;;;;;5017241;28;20205;-66
2023/07/04 04:49:17;;;;;;;4.40;1.67;;;16.70;99.90;;;;;;5017281;28;20273;-66
2023/07/04 04:51:51;;;;;;;6.15;1.83;;;16.70;99.90;;;;;;5029911;28;20177;-64
2023/07/04 04:54:17;;;;;;;4.50;2.10;;;16.80;99.90;;;;;;5033299;28;20174;-66
2023/07/04 04:56:44;;;;;;;6.15;1.98;;;16.80;99.90;;;;;;5011054;28;20202;-65
2023/07/04 04:59:13;;;;;;;7.28;2.05;;;16.80;99.90;;;;;;5014534;28;20282;-65
2023/07/04 05:01:41;;;;;;;5.40;1.90;;;16.80;99.90;;;;;;5035123;28;20189;-66
2023/07/04 05:04:11;;;;;;;10.63;2.40;;;16.80;99.90;;;;;;5024966;28;20198;-65
2023/07/04 05:06:39;;;;;;;4.97;1.90;;;16.90;99.90;;;;;;5008377;28;20361;-66
2023/07/04 05:09:04;;;;;;;3.25;1.80;;;16.90;99.90;;;;;;5020222;28;20181;-66
2023/07/04 05:11:32;;;;;;;4.78;2.05;;;16.90;99.90;;;;;;5021038;28;20243;-67
2023/07/04 05:13:58;;;;;;;6.60;1.92;;;16.90;99.90;;;;;;5019405;28;20177;-67
2023/07/04 05:16:26;;;;;;;6.90;2.20;;;16.90;99.90;;;;;;5008918;28;20183;-66
2023/07/04 05:18:52;;;;;;;5.15;1.73;;;17.00;99.90;;;;;;5012244;28;20207;-66
2023/07/04 05:21:22;;;;;;;5.00;1.63;;;17.00;99.90;;;;;;5001959;28;20194;-67
2023/07/04 05:23:54;;;;;;;4.47;1.77;;;17.00;99.90;;;;;;5031870;28;20210;-66
2023/07/04 05:26:21;;;;;;;6.10;2.00;;;17.10;99.90;;;;;;5030376;28;20193;-66
2023/07/04 05:28:47;;;;;;;6.53;2.50;;;17.10;99.90;;;;;;5015290;28;20178;-65
2023/07/04 05:31:18;;;;;;;3.30;1.80;;;17.10;99.90;;;;;;5010525;28;20265;-67
2023/07/04 05:33:44;;;;;;;7.53;1.98;;;17.10;99.90;;;;;;5027161;28;20460;-62
2023/07/04 05:36:15;;;;;;;5.53;2.22;;;17.20;99.90;;;;;;5015969;28;20208;-66
2023/07/04 05:38:43;;;;;;;5.35;2.17;;;17.20;99.90;;;;;;5001587;28;20159;-66
2023/07/04 05:41:14;;;;;;;7.22;2.17;;;17.20;99.90;;;;;;5014374;28;20244;-66
2023/07/04 05:43:41;;;;;;;5.10;2.10;;;17.20;99.90;;;;;;5013556;28;20287;-63
2023/07/04 05:46:10;;;;;;;4.65;2.13;;;17.30;99.90;;;;;;5028747;28;20248;-64
2023/07/04 05:48:41;;;;;;;8.60;2.33;;;17.30;99.90;;;;;;5019699;28;20425;-68
2023/07/04 05:51:11;;;;;;;6.90;2.35;;;17.30;99.90;;;;;;5019664;28;20170;-65
2023/07/04 05:53:38;;;;;;;5.80;2.20;;;17.40;99.90;;;;;;5035102;28;20227;-67
2023/07/04 05:56:08;;;;;;;5.97;2.03;;;17.40;99.90;;;;;;5016133;28;20198;-66
2023/07/04 05:58:35;;;;;;;5.03;1.90;;;17.50;99.90;;;;;;5030702;28;20266;-65
2023/07/04 06:01:17;;;;;;;7.30;2.20;;;17.50;99.90;;;;;;5034891;28;20183;-67
2023/07/04 06:03:45;;;;;;;4.55;1.80;;;17.60;99.90;;;;;;5028953;28;20189;-62
2023/07/04 06:06:25;;;;;;;5.50;2.10;;;17.60;99.90;;;;;;5034166;28;20465;-65
2023/07/04 06:08:53;;;;;;;7.68;2.03;;;17.60;99.90;;;;;;5035815;28;20281;-66
2023/07/04 06:11:20;;;;;;;5.82;2.20;;;17.70;99.90;;;;;;5018234;28;20174;-65
2023/07/04 06:13:45;;;;;;;6.22;2.20;;;17.70;99.90;;;;;;5019648;28;20209;-66
2023/07/04 06:16:11;;;;;;;5.50;2.15;;;17.80;99.90;;;;;;5020029;28;20209;-66
2023/07/04 06:18:40;;;;;;;7.32;2.42;;;17.80;99.90;;;;;;5019692;28;20182;-66
2023/07/04 06:21:09;;;;;;;6.15;2.35;;;17.80;99.90;;;;;;5022555;28;20198;-66
2023/07/04 06:23:36;;;;;;;5.57;2.08;;;17.80;99.90;;;;;;5003889;28;20192;-66
2023/07/04 06:26:02;;;;;;;4.75;1.90;;;17.90;99.90;;;;;;5012678;28;20234;-66
2023/07/04 06:28:30;;;;;;;5.07;2.25;;;17.90;99.90;;;;;;5026779;28;20217;-65
2023/07/04 06:30:58;;;;;;;3.35;1.80;;;17.90;99.90;;;;;;5027311;28;20186;-66
2023/07/04 06:33:24;;;;;;;3.63;1.77;;;18.00;99.90;;;;;;5025995;28;20193;-65
2023/07/04 06:35:50;;;;;;;4.68;1.98;;;18.00;99.90;;;;;;5022362;28;20202;-65
2023/07/04 06:38:15;;;;;;;7.00;2.25;;;18.10;99.90;;;;;;5009073;28;20216;-65
2023/07/04 06:40:53;;;;;;;7.30;2.42;;;18.10;99.90;;;;;;5019923;28;20213;-64
2023/07/04 06:43:18;;;;;;;4.40;1.92;;;18.20;99.90;;;;;;5017132;28;20200;-66
2023/07/04 06:45:44;;;;;;;4.90;2.00;;;18.20;99.90;;;;;;5022012;28;20253;-66
2023/07/04 06:50:38;;;;;;;6.22;1.92;;;18.30;99.90;;;;;;5034247;28;20224;-66
2023/07/04 06:53:03;;;;;;;7.68;2.08;;;18.30;99.90;;;;;;5029409;28;20197;-66
2023/07/04 06:55:29;;;;;;;5.55;1.98;;;18.40;99.90;;;;;;5035146;28;20186;-63
2023/07/04 06:57:56;;;;;;;5.38;2.15;;;18.40;99.90;;;;;;5035708;28;20176;-65
2023/07/04 07:00:22;;;;;;;3.15;1.83;;;18.50;99.90;;;;;;5032338;28;20182;-66
2023/07/04 07:02:50;;;;;;;3.50;1.98;;;18.50;99.90;;;;;;5033644;28;20181;-65
2023/07/04 07:05:17;;;;;;;3.03;1.50;;;18.60;99.90;;;;;;5035344;28;20263;-62
2023/07/04 07:07:48;;;;;;;5.03;1.73;;;18.70;99.90;;;;;;5035386;28;20198;-64
2023/07/04 07:10:13;;;;;;;5.38;1.85;;;18.70;99.90;;;;;;5035593;28;20166;-65
2023/07/04 07:12:39;;;;;;;7.30;2.20;;;18.80;99.90;;;;;;5037435;28;20239;-66
2023/07/04 07:15:05;;;;;;;4.70;2.05;;;18.90;99.90;;;;;;5044609;28;20222;-65
2023/07/04 07:17:32;;;;;;;5.22;2.00;;;19.00;99.90;;;;;;5036286;28;20209;-65
2023/07/04 07:19:58;;;;;;;3.85;1.80;;;19.00;99.90;;;;;;5036550;28;20177;-65
2023/07/04 07:22:24;;;;;;;6.72;2.00;;;19.00;99.90;;;;;;5034927;28;20261;-65
2023/07/04 07:24:49;;;;;;;4.95;2.03;;;19.10;99.90;;;;;;5035149;28;20202;-65
2023/07/04 07:27:15;;;;;;;3.95;1.60;;;19.10;99.90;;;;;;5034974;28;20202;-66
2023/07/04 07:29:40;;;;;;;3.75;1.75;;;19.10;99.90;;;;;;5034910;28;20221;-66
2023/07/04 07:32:07;;;;;;;2.20;1.42;;;19.20;99.90;;;;;;5034215;28;20339;-66
2023/07/04 07:34:35;;;;;;;5.28;1.75;;;19.20;99.90;;;;;;5034421;28;20216;-64
2023/07/04 07:37:02;;;;;;;4.53;1.60;;;19.30;99.90;;;;;;5034587;28;20205;-66
2023/07/04 07:39:28;;;;;;;5.18;1.90;;;19.30;99.90;;;;;;5036604;28;20201;-66
2023/07/04 07:41:55;;;;;;;4.40;1.50;;;19.40;99.90;;;;;;5034510;28;20174;-65
2023/07/04 07:44:23;;;;;;;2.78;1.63;;;19.40;99.90;;;;;;5034524;28;20188;-65
2023/07/04 07:46:51;;;;;;;3.60;2.00;;;19.50;99.90;;;;;;5027812;28;20233;-66
2023/07/04 07:49:19;;;;;;;6.22;1.80;;;19.50;99.90;;;;;;5010336;28;20194;-65
2023/07/04 07:51:46;;;;;;;5.85;1.80;;;19.60;99.90;;;;;;5050295;28;20181;-66
2023/07/04 07:54:14;;;;;;;4.72;1.83;;;19.70;99.90;;;;;;5026957;28;20209;-64
2023/07/04 07:56:45;;;;;;;3.15;1.75;;;19.70;99.90;;;;;;5034434;28;20273;-67
2023/07/04 07:59:12;;;;;;;4.10;1.42;;;19.80;99.90;;;;;;5034419;28;20174;-66
2023/07/04 08:01:38;;;;;;;5.50;1.77;;;19.80;99.90;;;;;;5015189;28;20182;-66
2023/07/04 08:04:05;;;;;;;4.03;1.85;;;19.90;99.90;;;;;;5033497;28;20188;-66
2023/07/04 08:06:36;;;;;;;5.75;2.08;;;20.00;99.90;;;;;;5033720;28;20201;-66
2023/07/04 08:09:06;;;;;;;4.45;1.70;;;20.00;99.90;;;;;;5034373;28;20231;-66
2023/07/04 08:11:32;;;;;;;4.57;2.30;;;20.10;99.90;;;;;;5010107;28;20204;-65
2023/07/04 08:14:01;;;;;;;4.72;2.00;;;20.10;99.90;;;;;;5034106;28;20194;-66
2023/07/04 08:16:29;;;;;;;3.13;1.55;;;20.10;99.90;;;;;;5023232;28;20270;-66
2023/07/04 08:18:58;;;;;;;6.15;1.83;;;20.20;99.90;;;;;;5034112;28;20199;-63
2023/07/04 08:21:24;;;;;;;3.88;1.60;;;20.30;99.90;;;;;;5014855;28;20198;-66
2023/07/04 08:23:50;;;;;;;3.78;1.67;;;20.30;99.90;;;;;;5034131;28;20212;-64
2023/07/04 08:26:21;;;;;;;3.33;1.70;;;20.40;99.90;;;;;;5017522;28;20193;-65
2023/07/04 08:28:47;;;;;;;5.13;2.15;;;20.40;99.90;;;;;;5033522;28;20198;-65
2023/07/04 08:31:18;;;;;;;4.85;2.65;;;20.50;99.90;;;;;;5034162;28;20276;-66
2023/07/04 08:33:47;;;;;;;4.63;2.05;;;20.50;99.90;;;;;;5026898;28;20339;-65
2023/07/04 08:36:19;;;;;;;4.20;2.00;;;20.50;99.90;;;;;;5026870;28;20198;-66
2023/07/04 08:38:48;;;;;;;4.80;2.20;;;20.60;99.90;;;;;;5015252;28;20175;-65
2023/07/04 08:41:34;;;;;;;6.03;2.90;;;20.70;99.90;;;;;;5017079;28;20194;-66
2023/07/04 08:44:19;;;;;;;5.10;2.45;;;20.80;99.90;;;;;;5033157;28;20264;-66
2023/07/04 08:46:57;;;;;;;3.30;2.10;;;20.80;99.90;;;;;;5017518;28;20229;-66
2023/07/04 08:49:40;;;;;;;3.58;1.95;;;20.90;99.90;;;;;;5021756;28;20209;-65
2023/07/04 08:52:12;;;;;;;3.53;1.90;;;20.90;99.90;;;;;;5026074;28;20174;-66
2023/07/04 08:54:38;;;;;;;3.85;2.25;;;21.00;99.90;;;;;;5033374;28;20201;-66
2023/07/04 08:57:23;;;;;;;4.30;2.08;;;21.00;99.90;;;;;;5017570;28;20182;-66
2023/07/04 09:00:01;;;;;;;4.35;2.13;;;21.00;99.90;;;;;;5028859;28;20243;-65
2023/07/04 09:02:30;;;;;;;5.78;2.10;;;21.10;99.90;;;;;;5016568;28;20197;-64
2023/07/04 09:05:17;;;;;;;3.05;2.05;;;21.10;99.90;;;;;;5017418;28;20321;-66
2023/07/04 09:08:00;;;;;;;3.88;2.22;;;21.10;99.80;;;;;;5016850;28;20229;-66
2023/07/04 09:10:26;;;;;;;4.20;2.08;;;21.20;99.70;;;;;;5033178;28;20213;-66
2023/07/04 09:12:52;;;;;;;6.55;2.20;;;21.20;99.90;;;;;;5033393;28;20174;-66
2023/07/04 09:15:30;;;;;;;5.55;2.55;;;21.20;99.60;;;;;;5048951;28;20182;-67
2023/07/04 09:18:09;;;;;;;4.35;2.20;;;21.20;99.40;;;;;;5031783;28;20178;-67
2023/07/04 09:20:47;;;;;;;4.93;2.53;;;21.30;99.10;;;;;;5030499;28;20240;-67
2023/07/04 09:23:21;;;;;;;6.38;2.08;;;21.30;99.20;;;;;;5033482;28;20174;-66
2023/07/04 09:25:51;;;;;;;3.33;1.80;;;21.40;99.30;;;;;;5042373;28;20173;-67
2023/07/04 09:28:16;;;;;;;4.15;2.15;;;21.40;99.90;;;;;;5035076;28;20202;-64
2023/07/04 09:30:42;;;;;;;4.35;2.30;;;21.50;99.70;;;;;;5034312;28;20193;-66
2023/07/04 09:33:09;;;;;;;6.35;2.40;;;21.60;99.50;;;;;;5033036;28;20181;-66
2023/07/04 09:35:36;;;;;;;4.97;2.45;;;21.70;99.40;;;;;;5032664;28;20205;-67
2023/07/04 09:38:02;;;;;;;2.92;2.20;;;21.80;99.50;;;;;;5013536;28;20194;-64
2023/07/04 09:40:48;;;;;;;3.55;2.33;;;21.90;99.30;;;;;;5029839;28;20248;-66
2023/07/04 09:43:30;;;;;;;4.63;2.83;;;21.90;98.10;;;;;;5027498;28;20271;-67
2023/07/04 09:46:24;;;;;;;4.57;2.45;;;22.00;97.90;;;;;;5035141;28;20239;-66
2023/07/04 09:48:51;;;;;;;3.92;2.50;;;22.10;97.30;;;;;;5013650;28;20194;-65
2023/07/04 09:51:24;;;;;;;4.95;2.75;;;22.20;98.90;;;;;;5033211;28;20185;-66
2023/07/04 09:53:50;;;;;;;4.55;3.03;;;22.30;97.90;;;;;;5033724;28;20174;-67
2023/07/04 09:56:26;;;;;;;6.63;2.90;;;22.40;98.30;;;;;;5020313;28;20189;-67
2023/07/04 09:59:10;;;;;;;4.35;2.45;;;22.40;97.70;;;;;;5026423;28;20177;-65
2023/07/04 10:01:42;;;;;;;4.20;2.50;;;22.50;97.00;;;;;;5019932;28;20206;-67
2023/07/04 10:04:11;;;;;;;4.95;2.63;;;22.60;98.10;;;;;;5037370;28;20178;-66
2023/07/04 10:06:43;;;;;;;4.30;3.00;;;22.70;97.70;;;;;;5024958;28;20194;-67
2023/07/04 10:09:20;;;;;;;5.18;3.10;;;22.80;97.30;;;;;;5036207;28;20252;-68
2023/07/04 10:11:50;;;;;;;6.53;2.75;;;22.80;97.50;;;;;;5043491;28;20194;-67
2023/07/04 10:14:32;;;;;;;3.88;2.70;;;23.00;97.80;;;;;;5019432;28;20285;-64
2023/07/04 10:17:18;;;;;;;4.07;2.83;;;23.10;98.20;;;;;;5036348;28;20190;-67
2023/07/04 10:19:49;;;;;;;4.10;2.80;;;23.30;96.60;;;;;;5035779;28;20265;-68
2023/07/04 10:22:34;;;;;;;5.32;2.95;;;23.40;97.60;;;;;;5032928;28;20217;-68
2023/07/04 10:25:03;;;;;;;4.90;3.10;;;23.60;96.60;;;;;;5034401;28;20190;-65
2023/07/04 10:27:34;;;;;;;5.18;2.78;;;23.70;97.40;;;;;;5025667;28;20236;-66
2023/07/04 10:30:06;;;;;;;6.13;3.58;;;23.70;96.70;;;;;;5029215;28;20174;-68
2023/07/04 10:32:39;;;;;;;5.07;3.45;;;23.80;96.20;;;;;;5035575;28;20174;-68
2023/07/04 10:35:11;;;;;;;6.05;3.10;;;23.90;95.90;;;;;;5019176;28;20205;-63
2023/07/04 10:37:39;;;;;;;5.00;2.95;;;23.90;95.90;;;;;;5019637;28;20178;-68
2023/07/04 10:40:11;;;;;;;4.57;3.25;;;24.00;96.50;;;;;;5018926;28;20265;-67
2023/07/04 10:42:51;;;;;;;5.18;3.30;;;24.10;95.20;;;;;;5019083;28;20558;-68
2023/07/04 10:45:19;;;;;;;5.00;3.03;;;24.20;94.70;;;;;;5035375;28;20178;-67
2023/07/04 10:47:48;;;;;;;4.35;3.00;;;24.20;94.80;;;;;;5035664;28;20198;-67
2023/07/04 10:50:29;;;;;;;5.28;3.58;;;24.20;94.30;;;;;;5022976;28;20251;-66
2023/07/04 10:53:02;;;;;;;4.78;3.30;;;24.10;94.40;;;;;;5018679;28;20198;-67
2023/07/04 10:55:39;;;;;;;5.30;3.30;;;24.10;93.80;;;;;;5019202;28;20189;-66
2023/07/04 10:58:28;;;;;;;5.57;3.60;;;24.10;93.20;;;;;;5017259;28;20449;-67
2023/07/04 11:00:58;;;;;;;4.88;3.20;;;24.20;93.20;;;;;;5035282;28;20210;-67
2023/07/04 11:03:37;;;;;;;4.68;3.10;;;24.30;94.10;;;;;;5035535;28;20193;-68
2023/07/04 11:06:11;;;;;;;8.43;3.50;;;24.30;94.40;;;;;;5017923;28;20217;-67
2023/07/04 11:08:39;;;;;;;4.57;2.95;;;24.40;93.90;;;;;;5036091;28;20431;-67
2023/07/04 11:11:12;;;;;;;4.50;2.92;;;24.60;95.30;;;;;;5022974;28;20174;-67
2023/07/04 11:13:52;;;;;;;5.20;3.25;;;24.80;95.10;;;;;;5040302;28;20212;-67
2023/07/04 11:16:22;;;;;;;3.83;2.75;;;25.10;94.80;;;;;;5028121;28;20183;-67
2023/07/04 11:19:03;;;;;;;5.68;3.80;;;25.30;95.20;;;;;;5032661;28;20193;-67
2023/07/04 11:21:29;;;;;;;5.03;3.42;;;25.50;93.40;;;;;;5038836;28;20236;-68
2023/07/04 11:24:13;;;;;;;5.60;3.50;;;25.70;93.70;;;;;;5036477;28;20181;-68
2023/07/04 11:26:58;;;;;;;5.05;3.90;;;25.70;92.00;;;;;;5025498;28;20300;-66
2023/07/04 11:29:25;;;;;;;5.22;4.05;;;25.80;91.70;;;;;;5035085;28;20245;-66
2023/07/04 11:32:51;;;;;;;5.88;4.20;;;25.80;90.80;;;;;;5034724;28;20263;-67
2023/07/04 11:35:24;;;;;;;6.03;4.07;;;25.80;90.20;;;;;;5024276;28;20197;-63
2023/07/04 11:37:54;;;;;;;4.20;3.30;;;25.70;90.00;;;;;;5000883;28;20169;-67
2023/07/04 11:40:43;;;;;;;4.53;3.17;;;25.70;90.50;;;;;;5016922;28;20192;-66
2023/07/04 11:43:24;;;;;;;5.30;4.07;;;25.70;90.00;;;;;;5033806;28;20202;-65
2023/07/04 11:45:55;;;;;;;6.40;4.22;;;25.70;86.30;;;;;;5007239;28;20200;-68
2023/07/04 11:48:24;;;;;;;5.63;3.88;;;25.70;88.20;;;;;;5034118;28;20184;-68
2023/07/04 11:50:53;;;;;;;6.03;4.13;;;25.70;89.70;;;;;;5034803;28;20170;-66
2023/07/04 11:53:24;;;;;;;6.30;4.00;;;25.80;90.10;;;;;;5011096;28;20221;-64
2023/07/04 11:56:05;;;;;;;4.20;3.65;;;25.90;86.80;;;;;;5041285;28;20225;-63
2023/07/04 11:58:31;;;;;;;5.50;3.40;;;25.90;86.10;;;;;;5040999;28;20181;-65
2023/07/04 12:00:58;;;;;;;4.60;3.55;;;26.00;88.40;;;;;;5033937;28;20174;-65
2023/07/04 12:03:29;;;;;;;6.03;4.25;;;26.00;87.60;;;;;;5038002;28;20201;-65
2023/07/04 12:05:57;;;;;;;6.07;4.10;;;26.00;88.20;;;;;;5043633;28;20178;-66
2023/07/04 12:08:29;;;;;;;6.47;4.47;;;26.10;87.80;;;;;;5017806;28;20221;-65
2023/07/04 12:11:02;;;;;;;4.53;3.75;;;26.20;85.80;;;;;;5017152;28;20236;-65
2023/07/04 12:13:34;;;;;;;5.68;4.25;;;26.30;84.60;;;;;;5017892;28;20184;-66
2023/07/04 12:16:03;;;;;;;5.95;4.43;;;26.30;83.50;;;;;;5017774;28;20181;-65
2023/07/04 12:18:34;;;;;;;5.65;3.92;;;26.30;81.90;;;;;;5017166;28;20198;-66
2023/07/04 12:21:00;;;;;;;5.15;3.97;;;26.20;81.70;;;;;;5033749;28;20198;-65
2023/07/04 12:23:26;;;;;;;6.78;4.35;;;26.20;83.20;;;;;;5034085;28;20414;-65
2023/07/04 12:25:55;;;;;;;4.90;3.65;;;26.10;82.30;;;;;;5033761;28;20176;-65
2023/07/04 12:28:27;;;;;;;5.43;4.20;;;26.00;81.40;;;;;;5022728;28;20178;-65
2023/07/04 12:30:56;;;;;;;4.57;3.97;;;26.00;80.50;;;;;;5024646;28;20255;-65
2023/07/04 12:33:23;;;;;;;5.10;4.20;;;26.10;82.30;;;;;;5030511;28;20203;-65
2023/07/04 12:35:55;;;;;;;5.80;4.32;;;26.10;80.10;;;;;;5030378;28;20184;-65
2023/07/04 12:38:26;;;;;;;6.22;4.40;;;26.10;80.00;;;;;;5001171;28;20190;-64
2023/07/04 12:40:53;;;;;;;5.15;4.20;;;26.10;79.30;;;;;;5012658;28;20206;-65
2023/07/04 12:43:21;;;;;;;5.70;4.53;;;26.00;79.00;;;;;;5028997;28;20174;-65
2023/07/04 12:45:49;;;;;;;7.32;5.30;;;26.00;77.60;;;;;;5035075;28;20178;-66
2023/07/04 12:48:15;;;;;;;6.72;5.03;;;25.90;76.60;;;;;;5081712;22;20289;-65
2023/07/04 12:50:52;;;;;;;5.72;4.43;;;26.00;77.40;;;;;;5017420;28;20198;-65
2023/07/04 12:53:19;;;;;;;5.70;4.80;;;26.00;77.00;;;;;;5025447;28;20185;-66
2023/07/04 12:55:45;;;;;;;5.55;4.47;;;26.10;78.10;;;;;;5013954;28;20186;-66
2023/07/04 12:58:15;;;;;;;4.80;3.97;;;26.20;78.00;;;;;;5008702;28;20202;-66
2023/07/04 13:00:45;;;;;;;7.35;4.15;;;26.30;78.40;;;;;;5030368;28;20170;-66
2023/07/04 13:03:17;;;;;;;5.80;4.28;;;26.50;78.90;;;;;;5017076;28;20255;-67
2023/07/04 13:05:50;;;;;;;4.30;3.88;;;26.70;77.80;;;;;;5032845;28;20174;-66